sensor_id;sensor_type;location;lat;lon;timestamp;temperature;humidity
12839;DHT22;6486;51.034;5.262;2023-05-20T00:01:37;16.50;49.10
12839;DHT22;6486;51.034;5.262;2023-05-20T00:04:03;16.50;49.00
12839;DHT22;6486;51.034;5.262;2023-05-20T00:06:29;16.50;49.10
12839;DHT22;6486;51.034;5.262;2023-05-20T00:08:54;16.50;49.20
12839;DHT22;6486;51.034;5.262;2023-05-20T00:11:20;16.50;49.40
12839;DHT22;6486;51.034;5.262;2023-05-20T00:13:46;16.40;49.30
12839;DHT22;6486;51.034;5.262;2023-05-20T00:16:12;16.40;49.40
12839;DHT22;6486;51.034;5.262;2023-05-20T00:18:38;16.40;49.50
12839;DHT22;6486;51.034;5.262;2023-05-20T00:21:03;16.40;49.60
12839;DHT22;6486;51.034;5.262;2023-05-20T00:23:29;16.30;49.60
12839;DHT22;6486;51.034;5.262;2023-05-20T00:25:54;16.30;49.60
12839;DHT22;6486;51.034;5.262;2023-05-20T00:28:20;16.30;49.60
12839;DHT22;6486;51.034;5.262;2023-05-20T00:30:48;16.30;49.60
12839;DHT22;6486;51.034;5.262;2023-05-20T00:33:13;16.30;49.70
12839;DHT22;6486;51.034;5.262;2023-05-20T00:35:39;16.20;49.70
12839;DHT22;6486;51.034;5.262;2023-05-20T00:38:05;16.20;49.80
12839;DHT22;6486;51.034;5.262;2023-05-20T00:40:30;16.20;49.80
12839;DHT22;6486;51.034;5.262;2023-05-20T00:42:56;16.10;49.80
12839;DHT22;6486;51.034;5.262;2023-05-20T00:45:22;16.10;49.80
12839;DHT22;6486;51.034;5.262;2023-05-20T00:47:48;16.10;49.80
12839;DHT22;6486;51.034;5.262;2023-05-20T00:50:13;16.10;49.80
12839;DHT22;6486;51.034;5.262;2023-05-20T00:52:39;16.10;49.90
12839;DHT22;6486;51.034;5.262;2023-05-20T00:55:08;16.10;50.00
12839;DHT22;6486;51.034;5.262;2023-05-20T00:57:34;16.00;50.00
12839;DHT22;6486;51.034;5.262;2023-05-20T01:00:00;16.00;50.10
12839;DHT22;6486;51.034;5.262;2023-05-20T01:02:26;16.00;50.20
12839;DHT22;6486;51.034;5.262;2023-05-20T01:04:52;15.90;50.20
12839;DHT22;6486;51.034;5.262;2023-05-20T01:07:19;15.90;50.30
12839;DHT22;6486;51.034;5.262;2023-05-20T01:09:45;15.80;50.30
12839;DHT22;6486;51.034;5.262;2023-05-20T01:15:06;15.80;50.40
12839;DHT22;6486;51.034;5.262;2023-05-20T01:17:37;15.70;50.50
12839;DHT22;6486;51.034;5.262;2023-05-20T01:20:05;15.70;50.60
12839;DHT22;6486;51.034;5.262;2023-05-20T01:22:35;15.60;50.60
12839;DHT22;6486;51.034;5.262;2023-05-20T01:25:01;15.60;50.70
12839;DHT22;6486;51.034;5.262;2023-05-20T01:27:27;15.50;50.60
12839;DHT22;6486;51.034;5.262;2023-05-20T01:29:54;15.50;50.70
12839;DHT22;6486;51.034;5.262;2023-05-20T01:32:23;15.50;50.80
12839;DHT22;6486;51.034;5.262;2023-05-20T01:34:51;15.40;50.80
12839;DHT22;6486;51.034;5.262;2023-05-20T01:37:18;15.40;50.90
12839;DHT22;6486;51.034;5.262;2023-05-20T01:39:46;15.40;51.00
12839;DHT22;6486;51.034;5.262;2023-05-20T01:42:14;15.30;51.00
12839;DHT22;6486;51.034;5.262;2023-05-20T01:44:40;15.30;51.20
12839;DHT22;6486;51.034;5.262;2023-05-20T01:47:06;15.20;51.20
12839;DHT22;6486;51.034;5.262;2023-05-20T01:49:32;15.20;51.40
12839;DHT22;6486;51.034;5.262;2023-05-20T01:51:57;15.20;51.40
12839;DHT22;6486;51.034;5.262;2023-05-20T01:54:23;15.10;51.40
12839;DHT22;6486;51.034;5.262;2023-05-20T01:56:49;15.10;51.40
12839;DHT22;6486;51.034;5.262;2023-05-20T01:59:15;15.10;51.60
12839;DHT22;6486;51.034;5.262;2023-05-20T02:01:41;15.10;51.70
12839;DHT22;6486;51.034;5.262;2023-05-20T02:04:07;15.00;51.70
12839;DHT22;6486;51.034;5.262;2023-05-20T02:06:32;15.00;51.80
12839;DHT22;6486;51.034;5.262;2023-05-20T02:08:58;15.00;51.90
12839;DHT22;6486;51.034;5.262;2023-05-20T02:11:24;15.00;52.00
12839;DHT22;6486;51.034;5.262;2023-05-20T02:13:50;14.90;52.00
12839;DHT22;6486;51.034;5.262;2023-05-20T02:16:16;14.90;52.10
12839;DHT22;6486;51.034;5.262;2023-05-20T02:18:42;14.90;52.20
12839;DHT22;6486;51.034;5.262;2023-05-20T02:21:08;14.90;52.20
12839;DHT22;6486;51.034;5.262;2023-05-20T02:23:34;14.80;52.20
12839;DHT22;6486;51.034;5.262;2023-05-20T02:26:00;14.80;52.50
12839;DHT22;6486;51.034;5.262;2023-05-20T02:28:26;14.80;52.70
12839;DHT22;6486;51.034;5.262;2023-05-20T02:30:52;14.80;52.80
12839;DHT22;6486;51.034;5.262;2023-05-20T02:33:18;14.70;52.70
12839;DHT22;6486;51.034;5.262;2023-05-20T02:35:44;14.70;52.90
12839;DHT22;6486;51.034;5.262;2023-05-20T02:38:11;14.70;53.00
12839;DHT22;6486;51.034;5.262;2023-05-20T02:40:37;14.70;53.00
12839;DHT22;6486;51.034;5.262;2023-05-20T02:43:03;14.60;53.00
12839;DHT22;6486;51.034;5.262;2023-05-20T02:45:28;14.60;53.20
12839;DHT22;6486;51.034;5.262;2023-05-20T02:47:54;14.60;53.40
12839;DHT22;6486;51.034;5.262;2023-05-20T02:50:20;14.50;53.30
12839;DHT22;6486;51.034;5.262;2023-05-20T02:52:46;14.50;53.50
12839;DHT22;6486;51.034;5.262;2023-05-20T02:55:12;14.50;53.60
12839;DHT22;6486;51.034;5.262;2023-05-20T02:57:37;14.50;53.70
12839;DHT22;6486;51.034;5.262;2023-05-20T03:00:07;14.50;53.80
12839;DHT22;6486;51.034;5.262;2023-05-20T03:02:36;14.40;53.80
12839;DHT22;6486;51.034;5.262;2023-05-20T03:05:02;14.40;53.80
12839;DHT22;6486;51.034;5.262;2023-05-20T03:07:30;14.40;53.90
12839;DHT22;6486;51.034;5.262;2023-05-20T03:09:56;14.30;53.90
12839;DHT22;6486;51.034;5.262;2023-05-20T03:12:24;14.30;54.00
12839;DHT22;6486;51.034;5.262;2023-05-20T03:14:51;14.30;54.10
12839;DHT22;6486;51.034;5.262;2023-05-20T03:17:22;14.30;54.30
12839;DHT22;6486;51.034;5.262;2023-05-20T03:19:48;14.30;54.30
12839;DHT22;6486;51.034;5.262;2023-05-20T03:22:14;14.20;54.40
12839;DHT22;6486;51.034;5.262;2023-05-20T03:24:39;14.20;54.50
12839;DHT22;6486;51.034;5.262;2023-05-20T03:27:06;14.20;54.60
12839;DHT22;6486;51.034;5.262;2023-05-20T03:29:32;14.20;54.70
12839;DHT22;6486;51.034;5.262;2023-05-20T03:31:58;14.20;54.80
12839;DHT22;6486;51.034;5.262;2023-05-20T03:34:23;14.10;54.70
12839;DHT22;6486;51.034;5.262;2023-05-20T03:36:50;14.10;54.80
12839;DHT22;6486;51.034;5.262;2023-05-20T03:39:16;14.10;54.90
12839;DHT22;6486;51.034;5.262;2023-05-20T03:41:41;14.10;55.10
12839;DHT22;6486;51.034;5.262;2023-05-20T03:44:07;14.00;55.10
12839;DHT22;6486;51.034;5.262;2023-05-20T03:46:33;14.00;55.20
12839;DHT22;6486;51.034;5.262;2023-05-20T03:48:59;14.00;55.30
12839;DHT22;6486;51.034;5.262;2023-05-20T03:51:26;14.00;55.40
12839;DHT22;6486;51.034;5.262;2023-05-20T03:53:52;14.00;55.50
12839;DHT22;6486;51.034;5.262;2023-05-20T03:56:18;14.00;55.60
12839;DHT22;6486;51.034;5.262;2023-05-20T03:58:43;14.00;55.70
12839;DHT22;6486;51.034;5.262;2023-05-20T04:01:09;14.00;55.80
12839;DHT22;6486;51.034;5.262;2023-05-20T04:03:37;13.90;55.90
12839;DHT22;6486;51.034;5.262;2023-05-20T04:06:03;13.90;56.00
12839;DHT22;6486;51.034;5.262;2023-05-20T04:08:29;13.90;56.10
12839;DHT22;6486;51.034;5.262;2023-05-20T04:10:55;13.80;56.10
12839;DHT22;6486;51.034;5.262;2023-05-20T04:13:21;13.80;56.20
12839;DHT22;6486;51.034;5.262;2023-05-20T04:15:50;13.90;56.40
12839;DHT22;6486;51.034;5.262;2023-05-20T04:18:17;13.90;56.50
12839;DHT22;6486;51.034;5.262;2023-05-20T04:20:43;13.80;56.40
12839;DHT22;6486;51.034;5.262;2023-05-20T04:23:09;13.80;56.50
12839;DHT22;6486;51.034;5.262;2023-05-20T04:25:35;13.80;56.50
12839;DHT22;6486;51.034;5.262;2023-05-20T04:28:00;13.80;56.60
12839;DHT22;6486;51.034;5.262;2023-05-20T04:30:26;13.80;56.70
12839;DHT22;6486;51.034;5.262;2023-05-20T04:32:53;13.80;56.80
12839;DHT22;6486;51.034;5.262;2023-05-20T04:35:18;13.80;56.90
12839;DHT22;6486;51.034;5.262;2023-05-20T04:37:44;13.80;57.00
12839;DHT22;6486;51.034;5.262;2023-05-20T04:40:12;13.80;57.20
12839;DHT22;6486;51.034;5.262;2023-05-20T04:42:38;13.80;57.30
12839;DHT22;6486;51.034;5.262;2023-05-20T04:45:05;13.80;57.30
12839;DHT22;6486;51.034;5.262;2023-05-20T04:47:33;13.80;57.30
12839;DHT22;6486;51.034;5.262;2023-05-20T04:50:06;13.80;57.40
12839;DHT22;6486;51.034;5.262;2023-05-20T04:52:36;13.90;57.50
12839;DHT22;6486;51.034;5.262;2023-05-20T04:55:02;13.90;57.50
12839;DHT22;6486;51.034;5.262;2023-05-20T04:57:28;13.90;57.50
12839;DHT22;6486;51.034;5.262;2023-05-20T04:59:53;13.90;57.50
12839;DHT22;6486;51.034;5.262;2023-05-20T05:02:23;14.00;57.80
12839;DHT22;6486;51.034;5.262;2023-05-20T05:04:49;14.00;57.80
12839;DHT22;6486;51.034;5.262;2023-05-20T05:07:16;14.00;58.60
12839;DHT22;6486;51.034;5.262;2023-05-20T05:09:42;14.00;57.90
12839;DHT22;6486;51.034;5.262;2023-05-20T05:12:07;14.10;58.00
12839;DHT22;6486;51.034;5.262;2023-05-20T05:14:33;14.10;58.10
12839;DHT22;6486;51.034;5.262;2023-05-20T05:16:59;14.10;58.10
12839;DHT22;6486;51.034;5.262;2023-05-20T05:19:24;14.20;58.10
12839;DHT22;6486;51.034;5.262;2023-05-20T05:21:50;14.30;58.10
12839;DHT22;6486;51.034;5.262;2023-05-20T05:24:16;14.30;58.10
12839;DHT22;6486;51.034;5.262;2023-05-20T05:26:41;14.40;58.20
12839;DHT22;6486;51.034;5.262;2023-05-20T05:29:08;14.40;58.20
12839;DHT22;6486;51.034;5.262;2023-05-20T05:31:33;14.50;58.30
12839;DHT22;6486;51.034;5.262;2023-05-20T05:33:59;14.50;58.30
12839;DHT22;6486;51.034;5.262;2023-05-20T05:36:25;14.60;58.30
12839;DHT22;6486;51.034;5.262;2023-05-20T05:38:50;14.60;58.20
12839;DHT22;6486;51.034;5.262;2023-05-20T05:41:16;14.70;58.20
12839;DHT22;6486;51.034;5.262;2023-05-20T05:43:42;14.80;58.20
12839;DHT22;6486;51.034;5.262;2023-05-20T05:46:07;14.90;58.20
12839;DHT22;6486;51.034;5.262;2023-05-20T05:48:35;15.00;58.20
12839;DHT22;6486;51.034;5.262;2023-05-20T05:51:01;15.00;58.00
12839;DHT22;6486;51.034;5.262;2023-05-20T05:53:26;15.10;57.90
12839;DHT22;6486;51.034;5.262;2023-05-20T05:55:52;15.20;57.90
12839;DHT22;6486;51.034;5.262;2023-05-20T05:58:18;15.30;57.80
12839;DHT22;6486;51.034;5.262;2023-05-20T06:00:44;15.40;57.80
12839;DHT22;6486;51.034;5.262;2023-05-20T06:03:09;15.50;57.60
12839;DHT22;6486;51.034;5.262;2023-05-20T06:05:35;15.60;57.60
12839;DHT22;6486;51.034;5.262;2023-05-20T06:08:01;15.60;57.40
12839;DHT22;6486;51.034;5.262;2023-05-20T06:10:27;15.70;57.30
12839;DHT22;6486;51.034;5.262;2023-05-20T06:12:52;15.80;57.20
12839;DHT22;6486;51.034;5.262;2023-05-20T06:15:18;15.90;57.20
12839;DHT22;6486;51.034;5.262;2023-05-20T06:17:44;16.00;57.20
12839;DHT22;6486;51.034;5.262;2023-05-20T06:20:10;16.10;57.20
12839;DHT22;6486;51.034;5.262;2023-05-20T06:22:36;16.20;57.20
12839;DHT22;6486;51.034;5.262;2023-05-20T06:25:02;16.20;57.00
12839;DHT22;6486;51.034;5.262;2023-05-20T06:27:27;16.30;57.00
12839;DHT22;6486;51.034;5.262;2023-05-20T06:29:53;16.40;56.90
12839;DHT22;6486;51.034;5.262;2023-05-20T06:32:19;16.50;56.80
12839;DHT22;6486;51.034;5.262;2023-05-20T06:34:45;16.50;56.60
12839;DHT22;6486;51.034;5.262;2023-05-20T06:37:10;16.60;56.40
12839;DHT22;6486;51.034;5.262;2023-05-20T06:39:36;16.70;56.30
12839;DHT22;6486;51.034;5.262;2023-05-20T06:42:02;16.80;56.20
12839;DHT22;6486;51.034;5.262;2023-05-20T06:44:30;16.90;56.00
12839;DHT22;6486;51.034;5.262;2023-05-20T06:46:56;17.10;56.00
12839;DHT22;6486;51.034;5.262;2023-05-20T06:49:21;17.10;55.70
12839;DHT22;6486;51.034;5.262;2023-05-20T06:51:48;17.30;55.70
12839;DHT22;6486;51.034;5.262;2023-05-20T06:54:14;17.40;55.50
12839;DHT22;6486;51.034;5.262;2023-05-20T06:56:40;17.50;55.30
12839;DHT22;6486;51.034;5.262;2023-05-20T06:59:06;17.60;55.10
12839;DHT22;6486;51.034;5.262;2023-05-20T07:01:32;17.70;55.00
12839;DHT22;6486;51.034;5.262;2023-05-20T07:03:58;17.80;54.70
12839;DHT22;6486;51.034;5.262;2023-05-20T07:06:23;17.90;54.60
12839;DHT22;6486;51.034;5.262;2023-05-20T07:08:49;18.00;54.50
12839;DHT22;6486;51.034;5.262;2023-05-20T07:11:15;18.10;54.30
12839;DHT22;6486;51.034;5.262;2023-05-20T07:13:40;18.20;54.10
12839;DHT22;6486;51.034;5.262;2023-05-20T07:16:06;18.30;53.90
12839;DHT22;6486;51.034;5.262;2023-05-20T07:18:32;18.40;53.60
12839;DHT22;6486;51.034;5.262;2023-05-20T07:20:57;18.50;53.50
12839;DHT22;6486;51.034;5.262;2023-05-20T07:23:23;18.60;53.40
12839;DHT22;6486;51.034;5.262;2023-05-20T07:25:49;18.70;53.20
12839;DHT22;6486;51.034;5.262;2023-05-20T07:28:15;18.80;53.00
12839;DHT22;6486;51.034;5.262;2023-05-20T07:30:42;18.90;52.70
12839;DHT22;6486;51.034;5.262;2023-05-20T07:33:10;19.00;52.40
12839;DHT22;6486;51.034;5.262;2023-05-20T07:35:37;19.10;52.20
12839;DHT22;6486;51.034;5.262;2023-05-20T07:38:03;19.20;52.10
12839;DHT22;6486;51.034;5.262;2023-05-20T07:40:28;19.30;52.00
12839;DHT22;6486;51.034;5.262;2023-05-20T07:42:54;19.30;51.80
12839;DHT22;6486;51.034;5.262;2023-05-20T07:45:20;19.50;51.80
12839;DHT22;6486;51.034;5.262;2023-05-20T07:47:45;19.60;51.50
12839;DHT22;6486;51.034;5.262;2023-05-20T07:50:11;19.70;51.20
12839;DHT22;6486;51.034;5.262;2023-05-20T07:52:36;19.80;51.20
12839;DHT22;6486;51.034;5.262;2023-05-20T07:55:02;19.80;50.90
12839;DHT22;6486;51.034;5.262;2023-05-20T07:57:28;20.00;50.90
12839;DHT22;6486;51.034;5.262;2023-05-20T07:59:54;20.10;50.70
12839;DHT22;6486;51.034;5.262;2023-05-20T08:02:19;20.20;50.60
12839;DHT22;6486;51.034;5.262;2023-05-20T08:04:45;20.30;50.40
12839;DHT22;6486;51.034;5.262;2023-05-20T08:07:11;20.40;50.20
12839;DHT22;6486;51.034;5.262;2023-05-20T08:09:37;20.40;50.00
12839;DHT22;6486;51.034;5.262;2023-05-20T08:12:02;20.50;49.70
12839;DHT22;6486;51.034;5.262;2023-05-20T08:14:28;20.60;49.70
12839;DHT22;6486;51.034;5.262;2023-05-20T08:16:54;20.70;49.40
12839;DHT22;6486;51.034;5.262;2023-05-20T08:19:19;20.80;49.30
12839;DHT22;6486;51.034;5.262;2023-05-20T08:21:45;20.90;49.10
12839;DHT22;6486;51.034;5.262;2023-05-20T08:24:11;21.10;49.20
12839;DHT22;6486;51.034;5.262;2023-05-20T08:26:37;21.20;48.80
12839;DHT22;6486;51.034;5.262;2023-05-20T08:29:03;21.30;48.30
12839;DHT22;6486;51.034;5.262;2023-05-20T08:31:28;21.40;48.20
12839;DHT22;6486;51.034;5.262;2023-05-20T08:33:54;21.50;47.80
12839;DHT22;6486;51.034;5.262;2023-05-20T08:36:20;21.60;47.70
12839;DHT22;6486;51.034;5.262;2023-05-20T08:38:46;21.70;47.50
12839;DHT22;6486;51.034;5.262;2023-05-20T08:41:13;21.80;47.60
12839;DHT22;6486;51.034;5.262;2023-05-20T08:43:38;21.90;47.60
12839;DHT22;6486;51.034;5.262;2023-05-20T08:46:04;22.10;47.40
12839;DHT22;6486;51.034;5.262;2023-05-20T08:48:32;22.30;47.00
12839;DHT22;6486;51.034;5.262;2023-05-20T08:50:59;22.30;46.60
12839;DHT22;6486;51.034;5.262;2023-05-20T08:53:27;22.30;46.40
12839;DHT22;6486;51.034;5.262;2023-05-20T08:55:54;22.30;46.30
12839;DHT22;6486;51.034;5.262;2023-05-20T08:58:23;22.40;46.30
12839;DHT22;6486;51.034;5.262;2023-05-20T09:00:52;22.50;46.00
12839;DHT22;6486;51.034;5.262;2023-05-20T09:03:18;22.50;45.80
12839;DHT22;6486;51.034;5.262;2023-05-20T09:05:46;22.60;45.50
12839;DHT22;6486;51.034;5.262;2023-05-20T09:08:12;22.70;45.40
12839;DHT22;6486;51.034;5.262;2023-05-20T09:10:39;22.80;45.20
12839;DHT22;6486;51.034;5.262;2023-05-20T09:13:06;23.00;45.10
12839;DHT22;6486;51.034;5.262;2023-05-20T09:15:33;23.10;45.00
12839;DHT22;6486;51.034;5.262;2023-05-20T09:18:00;23.20;44.80
12839;DHT22;6486;51.034;5.262;2023-05-20T09:20:29;23.30;44.80
12839;DHT22;6486;51.034;5.262;2023-05-20T09:23:04;23.50;44.80
12839;DHT22;6486;51.034;5.262;2023-05-20T09:25:30;23.60;44.20
12839;DHT22;6486;51.034;5.262;2023-05-20T09:27:56;23.70;44.00
12839;DHT22;6486;51.034;5.262;2023-05-20T09:30:22;23.80;44.10
12839;DHT22;6486;51.034;5.262;2023-05-20T09:32:59;23.90;44.00
12839;DHT22;6486;51.034;5.262;2023-05-20T09:35:26;24.00;43.90
12839;DHT22;6486;51.034;5.262;2023-05-20T09:37:56;24.10;43.40
12839;DHT22;6486;51.034;5.262;2023-05-20T09:40:24;24.20;43.50
12839;DHT22;6486;51.034;5.262;2023-05-20T09:42:55;24.30;43.40
12839;DHT22;6486;51.034;5.262;2023-05-20T09:45:21;24.40;43.30
12839;DHT22;6486;51.034;5.262;2023-05-20T09:47:50;24.50;43.20
12839;DHT22;6486;51.034;5.262;2023-05-20T09:50:18;24.60;43.00
12839;DHT22;6486;51.034;5.262;2023-05-20T09:52:47;24.70;42.90
12839;DHT22;6486;51.034;5.262;2023-05-20T09:55:14;24.80;42.80
12839;DHT22;6486;51.034;5.262;2023-05-20T09:57:40;24.90;42.60
12839;DHT22;6486;51.034;5.262;2023-05-20T10:00:07;25.00;42.30
12839;DHT22;6486;51.034;5.262;2023-05-20T10:02:33;25.00;42.20
12839;DHT22;6486;51.034;5.262;2023-05-20T10:05:05;24.90;42.20
12839;DHT22;6486;51.034;5.262;2023-05-20T10:11:11;24.60;42.10
12839;DHT22;6486;51.034;5.262;2023-05-20T10:21:17;24.80;42.70
12839;DHT22;6486;51.034;5.262;2023-05-20T10:23:43;24.90;42.70
12839;DHT22;6486;51.034;5.262;2023-05-20T10:26:09;25.10;42.60
12839;DHT22;6486;51.034;5.262;2023-05-20T10:28:36;25.30;42.60
12839;DHT22;6486;51.034;5.262;2023-05-20T10:31:14;25.40;42.40
12839;DHT22;6486;51.034;5.262;2023-05-20T10:33:41;25.50;42.20
12839;DHT22;6486;51.034;5.262;2023-05-20T10:36:07;25.70;42.10
12839;DHT22;6486;51.034;5.262;2023-05-20T10:38:33;25.80;41.90
12839;DHT22;6486;51.034;5.262;2023-05-20T10:41:08;26.00;41.80
12839;DHT22;6486;51.034;5.262;2023-05-20T10:43:36;26.10;41.50
12839;DHT22;6486;51.034;5.262;2023-05-20T10:46:02;26.20;41.40
12839;DHT22;6486;51.034;5.262;2023-05-20T10:48:30;26.00;41.60
12839;DHT22;6486;51.034;5.262;2023-05-20T10:51:02;26.00;41.60
12839;DHT22;6486;51.034;5.262;2023-05-20T10:53:41;26.20;41.50
12839;DHT22;6486;51.034;5.262;2023-05-20T10:56:19;26.40;41.40
12839;DHT22;6486;51.034;5.262;2023-05-20T10:58:47;26.50;41.10
12839;DHT22;6486;51.034;5.262;2023-05-20T11:01:13;26.70;41.20
12839;DHT22;6486;51.034;5.262;2023-05-20T11:03:43;26.90;41.20
12839;DHT22;6486;51.034;5.262;2023-05-20T11:06:17;27.00;40.90
12839;DHT22;6486;51.034;5.262;2023-05-20T11:08:43;27.10;40.50
12839;DHT22;6486;51.034;5.262;2023-05-20T11:11:13;27.00;40.10
12839;DHT22;6486;51.034;5.262;2023-05-20T11:13:39;27.00;39.80
12839;DHT22;6486;51.034;5.262;2023-05-20T11:16:05;26.90;39.80
12839;DHT22;6486;51.034;5.262;2023-05-20T11:18:31;26.80;40.00
12839;DHT22;6486;51.034;5.262;2023-05-20T11:20:58;26.80;40.20
12839;DHT22;6486;51.034;5.262;2023-05-20T11:23:26;26.90;40.10
12839;DHT22;6486;51.034;5.262;2023-05-20T11:25:53;27.10;39.90
12839;DHT22;6486;51.034;5.262;2023-05-20T11:28:19;27.30;39.90
12839;DHT22;6486;51.034;5.262;2023-05-20T11:30:52;27.40;39.80
12839;DHT22;6486;51.034;5.262;2023-05-20T11:33:18;27.40;39.60
12839;DHT22;6486;51.034;5.262;2023-05-20T11:35:50;27.20;39.70
12839;DHT22;6486;51.034;5.262;2023-05-20T11:38:16;27.40;39.80
12839;DHT22;6486;51.034;5.262;2023-05-20T11:40:44;27.50;39.80
12839;DHT22;6486;51.034;5.262;2023-05-20T11:43:12;27.60;39.40
12839;DHT22;6486;51.034;5.262;2023-05-20T11:45:42;27.60;39.40
12839;DHT22;6486;51.034;5.262;2023-05-20T11:48:09;27.40;39.50
12839;DHT22;6486;51.034;5.262;2023-05-20T11:50:40;27.30;39.50
12839;DHT22;6486;51.034;5.262;2023-05-20T11:53:14;27.30;39.10
12839;DHT22;6486;51.034;5.262;2023-05-20T11:55:50;26.90;39.20
12839;DHT22;6486;51.034;5.262;2023-05-20T11:58:28;26.60;39.30
12839;DHT22;6486;51.034;5.262;2023-05-20T12:00:53;26.50;39.60
12839;DHT22;6486;51.034;5.262;2023-05-20T12:03:19;26.70;39.80
12839;DHT22;6486;51.034;5.262;2023-05-20T12:05:46;26.90;39.80
12839;DHT22;6486;51.034;5.262;2023-05-20T12:08:13;27.20;39.90
12839;DHT22;6486;51.034;5.262;2023-05-20T12:10:38;27.40;39.50
12839;DHT22;6486;51.034;5.262;2023-05-20T12:13:05;27.40;39.20
12839;DHT22;6486;51.034;5.262;2023-05-20T12:15:34;27.50;39.20
12839;DHT22;6486;51.034;5.262;2023-05-20T12:18:01;27.60;39.20
12839;DHT22;6486;51.034;5.262;2023-05-20T12:20:26;27.70;38.70
12839;DHT22;6486;51.034;5.262;2023-05-20T12:22:53;27.80;38.60
12839;DHT22;6486;51.034;5.262;2023-05-20T12:25:19;27.90;38.50
12839;DHT22;6486;51.034;5.262;2023-05-20T12:27:47;28.00;38.80
12839;DHT22;6486;51.034;5.262;2023-05-20T12:30:17;27.80;38.40
12839;DHT22;6486;51.034;5.262;2023-05-20T12:32:43;27.70;38.70
12839;DHT22;6486;51.034;5.262;2023-05-20T12:35:10;27.60;38.50
12839;DHT22;6486;51.034;5.262;2023-05-20T12:37:39;27.60;38.80
12839;DHT22;6486;51.034;5.262;2023-05-20T12:40:10;27.80;39.50
12839;DHT22;6486;51.034;5.262;2023-05-20T12:42:39;27.90;38.80
12839;DHT22;6486;51.034;5.262;2023-05-20T12:45:07;28.10;38.60
12839;DHT22;6486;51.034;5.262;2023-05-20T12:47:33;28.20;38.70
12839;DHT22;6486;51.034;5.262;2023-05-20T12:50:00;28.40;38.60
12839;DHT22;6486;51.034;5.262;2023-05-20T12:52:26;28.50;38.60
12839;DHT22;6486;51.034;5.262;2023-05-20T12:54:55;28.60;38.60
12839;DHT22;6486;51.034;5.262;2023-05-20T12:57:23;28.70;38.40
12839;DHT22;6486;51.034;5.262;2023-05-20T12:59:49;28.70;38.00
12839;DHT22;6486;51.034;5.262;2023-05-20T13:02:15;28.80;37.70
12839;DHT22;6486;51.034;5.262;2023-05-20T13:04:41;28.80;37.70
12839;DHT22;6486;51.034;5.262;2023-05-20T13:07:06;28.80;37.90
12839;DHT22;6486;51.034;5.262;2023-05-20T13:09:32;28.90;37.90
12839;DHT22;6486;51.034;5.262;2023-05-20T13:11:59;29.00;37.80
12839;DHT22;6486;51.034;5.262;2023-05-20T13:14:25;29.10;37.50
12839;DHT22;6486;51.034;5.262;2023-05-20T13:16:51;29.10;37.40
12839;DHT22;6486;51.034;5.262;2023-05-20T13:19:21;29.20;37.40
12839;DHT22;6486;51.034;5.262;2023-05-20T13:21:48;29.20;37.20
12839;DHT22;6486;51.034;5.262;2023-05-20T13:24:14;29.20;37.20
12839;DHT22;6486;51.034;5.262;2023-05-20T13:26:40;29.30;37.00
12839;DHT22;6486;51.034;5.262;2023-05-20T13:29:05;29.40;37.10
12839;DHT22;6486;51.034;5.262;2023-05-20T13:31:31;29.40;37.00
12839;DHT22;6486;51.034;5.262;2023-05-20T13:33:57;29.30;37.10
12839;DHT22;6486;51.034;5.262;2023-05-20T13:36:25;29.20;37.10
12839;DHT22;6486;51.034;5.262;2023-05-20T13:38:51;29.20;36.80
12839;DHT22;6486;51.034;5.262;2023-05-20T13:41:17;29.00;36.90
12839;DHT22;6486;51.034;5.262;2023-05-20T13:43:42;28.90;37.00
12839;DHT22;6486;51.034;5.262;2023-05-20T13:46:08;28.90;37.10
12839;DHT22;6486;51.034;5.262;2023-05-20T13:48:34;29.10;37.20
12839;DHT22;6486;51.034;5.262;2023-05-20T13:50:59;29.00;37.20
12839;DHT22;6486;51.034;5.262;2023-05-20T13:53:26;28.70;37.20
12839;DHT22;6486;51.034;5.262;2023-05-20T13:55:52;28.50;37.50
12839;DHT22;6486;51.034;5.262;2023-05-20T13:58:18;28.60;37.70
12839;DHT22;6486;51.034;5.262;2023-05-20T14:00:43;28.70;37.70
12839;DHT22;6486;51.034;5.262;2023-05-20T14:03:09;28.80;37.30
12839;DHT22;6486;51.034;5.262;2023-05-20T14:05:36;28.70;37.20
12839;DHT22;6486;51.034;5.262;2023-05-20T14:08:01;28.40;37.70
12839;DHT22;6486;51.034;5.262;2023-05-20T14:10:27;28.40;37.80
12839;DHT22;6486;51.034;5.262;2023-05-20T14:12:53;28.50;37.60
12839;DHT22;6486;51.034;5.262;2023-05-20T14:15:19;28.40;37.90
12839;DHT22;6486;51.034;5.262;2023-05-20T14:17:46;28.40;37.90
12839;DHT22;6486;51.034;5.262;2023-05-20T14:20:12;28.40;37.90
12839;DHT22;6486;51.034;5.262;2023-05-20T14:22:38;28.50;37.60
12839;DHT22;6486;51.034;5.262;2023-05-20T14:25:04;28.60;37.60
12839;DHT22;6486;51.034;5.262;2023-05-20T14:27:30;28.70;37.60
12839;DHT22;6486;51.034;5.262;2023-05-20T14:29:55;28.90;37.50
12839;DHT22;6486;51.034;5.262;2023-05-20T14:32:21;29.00;37.40
12839;DHT22;6486;51.034;5.262;2023-05-20T14:34:47;28.80;37.30
12839;DHT22;6486;51.034;5.262;2023-05-20T14:37:13;28.80;37.60
12839;DHT22;6486;51.034;5.262;2023-05-20T14:39:40;28.60;37.80
12839;DHT22;6486;51.034;5.262;2023-05-20T14:42:05;28.60;37.70
12839;DHT22;6486;51.034;5.262;2023-05-20T14:44:31;28.70;37.80
12839;DHT22;6486;51.034;5.262;2023-05-20T14:46:57;28.70;37.70
12839;DHT22;6486;51.034;5.262;2023-05-20T14:49:23;28.70;37.70
12839;DHT22;6486;51.034;5.262;2023-05-20T14:51:49;28.60;38.00
12839;DHT22;6486;51.034;5.262;2023-05-20T14:54:15;28.60;38.00
12839;DHT22;6486;51.034;5.262;2023-05-20T14:56:43;28.70;37.90
12839;DHT22;6486;51.034;5.262;2023-05-20T14:59:09;28.70;37.80
12839;DHT22;6486;51.034;5.262;2023-05-20T15:01:35;28.70;37.80
12839;DHT22;6486;51.034;5.262;2023-05-20T15:04:01;28.70;37.60
12839;DHT22;6486;51.034;5.262;2023-05-20T15:06:27;28.80;37.60
12839;DHT22;6486;51.034;5.262;2023-05-20T15:08:53;28.80;37.60
12839;DHT22;6486;51.034;5.262;2023-05-20T15:11:18;28.70;37.80
12839;DHT22;6486;51.034;5.262;2023-05-20T15:13:44;28.50;37.80
12839;DHT22;6486;51.034;5.262;2023-05-20T15:16:11;28.30;37.90
12839;DHT22;6486;51.034;5.262;2023-05-20T15:18:37;28.00;38.10
12839;DHT22;6486;51.034;5.262;2023-05-20T15:21:03;28.10;38.40
12839;DHT22;6486;51.034;5.262;2023-05-20T15:23:30;28.20;38.20
12839;DHT22;6486;51.034;5.262;2023-05-20T15:25:56;28.10;38.20
12839;DHT22;6486;51.034;5.262;2023-05-20T15:28:24;28.10;38.30
12839;DHT22;6486;51.034;5.262;2023-05-20T15:30:55;28.00;38.40
12839;DHT22;6486;51.034;5.262;2023-05-20T15:33:21;28.10;38.50
12839;DHT22;6486;51.034;5.262;2023-05-20T15:35:47;28.10;38.40
12839;DHT22;6486;51.034;5.262;2023-05-20T15:38:14;28.30;38.50
12839;DHT22;6486;51.034;5.262;2023-05-20T15:40:40;28.10;38.50
12839;DHT22;6486;51.034;5.262;2023-05-20T15:43:06;28.20;39.20
12839;DHT22;6486;51.034;5.262;2023-05-20T15:45:32;28.30;38.60
12839;DHT22;6486;51.034;5.262;2023-05-20T15:47:58;28.40;38.40
12839;DHT22;6486;51.034;5.262;2023-05-20T15:50:24;28.40;38.30
12839;DHT22;6486;51.034;5.262;2023-05-20T15:52:53;28.40;38.30
12839;DHT22;6486;51.034;5.262;2023-05-20T15:55:19;28.40;38.30